Port Kenny — VRGP2 — position and weather

sailwx.info

Track history (hours):
 
Tides and Currents Weather Stations Pressure Air Temp Water Temp Dewpoint Dewpoint Depression Visibility Wind Speed Wind Dir Waves Ship Positions

Port Kenny

Last reported at 2017-Nov-09 11:58 UTC. Time now 2017-Nov-22 11:11 UTC.
Position N 55°42' E 017°10'.
Warning: this ship's position is 12 days out of date.

Length 170 m; draft 5.7 m.

Type: Cargo ship. MMSI: 477742592.

Date/timePositionNaut miles runAvg speedWind from/ knotsBaromVisibWave heightAir tempDewpointWater temp
2017-Nov-09 11:58N 55°42' E 017°10'714.2
2017-Nov-09 11:29N 55°41' E 016°58'1014.1
2017-Nov-09 10:48N 55°39' E 016°41'414.2
2017-Nov-09 10:29N 55°39' E 016°33'714.3
2017-Nov-09 10:00N 55°38' E 016°21'714.3
2017-Nov-09 09:30N 55°37' E 016°08'714.2
2017-Nov-09 09:00N 55°35' E 015°56'714.0
2017-Nov-09 08:30N 55°34' E 015°44'713.9
2017-Nov-09 08:00N 55°33' E 015°32'714.1
2017-Nov-09 07:30N 55°32' E 015°19'713.9
2017-Nov-09 07:01N 55°30' E 015°08'713.9
2017-Nov-09 06:30N 55°28' E 014°56'713.9
2017-Nov-09 06:00N 55°25' E 014°45'714.0
2017-Nov-09 05:30N 55°21' E 014°35'714.1
2017-Nov-09 05:00N 55°16' E 014°27'713.6
2017-Nov-09 04:31N 55°11' E 014°18'713.6
2017-Nov-09 03:59N 55°09' E 014°06'1413.7
2017-Nov-09 02:59N 55°10' E 013°42'1014.0
2017-Nov-09 02:15N 55°11' E 013°24'314.0
2017-Nov-09 02:00N 55°11' E 013°18'713.8
2017-Nov-09 01:30N 55°12' E 013°06'713.9
2017-Nov-09 01:00N 55°14' E 012°55'713.9
2017-Nov-09 00:30N 55°16' E 012°43'510.5
2017-Nov-09 00:00N 55°21' E 012°38'613.0
2017-Nov-08 23:31N 55°27' E 012°40'510.6
2017-Nov-08 23:01N 55°32' E 012°45'510.3
2017-Nov-08 22:30N 55°35' E 012°51'510.1
2017-Nov-08 22:00N 55°39' E 012°57'510.5
2017-Nov-08 21:30N 55°44' E 012°52'5 9.8
2017-Nov-08 21:01N 55°48' E 012°47'510.0
2017-Nov-08 20:31N 55°53' E 012°44'510.4
2017-Nov-08 20:01N 55°58' E 012°42'510.1
2017-Nov-08 19:30N 56°03' E 012°39'4 8.4
2017-Nov-08 19:00N 56°06' E 012°34'4 8.1
2017-Nov-08 18:30N 56°08' E 012°28'4 8.3
2017-Nov-08 18:00N 56°11' E 012°22'4112.5
2017-Nov-08 14:44N 56°47' E 011°50'413.3
2017-Nov-08 14:27N 56°51' E 011°48'713.5
2017-Nov-08 13:54N 56°58' E 011°44'613.3
2017-Nov-08 13:25N 57°04' E 011°39'512.9
2017-Nov-08 13:01N 57°09' E 011°35'713.2
2017-Nov-08 12:30N 57°15' E 011°30'713.3
2017-Nov-08 12:01N 57°21' E 011°27'713.2
2017-Nov-08 11:30N 57°27' E 011°23'613.0
2017-Nov-08 11:01N 57°32' E 011°14'713.7
2017-Nov-08 10:30N 57°37' E 011°05'713.7
2017-Nov-08 09:59N 57°42' E 010°56'613.8
2017-Nov-08 09:31N 57°46' E 010°47'712.9
2017-Nov-08 09:00N 57°47' E 010°35'714.2
2017-Nov-08 08:29N 57°46' E 010°21'32913.7
2017-Nov-07 08:33N 53°20' E 004°39'114.8
2017-Nov-07 08:28N 53°19' E 004°38'815.0
2017-Nov-07 07:57N 53°12' E 004°32'715.1
2017-Nov-07 07:30N 53°06' E 004°27'815.2
2017-Nov-07 07:00N 52°60' E 004°20'815.4
2017-Nov-07 06:30N 52°53' E 004°16'815.3
2017-Nov-07 05:57N 52°45' E 004°08'715.3
2017-Nov-07 05:30N 52°40' E 003°60'815.4
2017-Nov-07 05:00N 52°35' E 003°51'2915.7
2017-Nov-07 03:10N 52°14' E 003°19'315.9
2017-Nov-07 02:59N 52°12' E 003°15'815.9
2017-Nov-07 02:30N 52°07' E 003°06'815.7
2017-Nov-07 02:00N 52°01' E 002°57'2014.0
2017-Nov-07 00:33N 51°44' E 002°40'1412.0
2017-Nov-06 23:23N 51°30' E 002°40'3 8.3
2017-Nov-06 23:00N 51°27' E 002°38'0 0.2
2017-Nov-06 22:31N 51°27' E 002°38'0 0.0
2017-Nov-06 21:55N 51°27' E 002°38'0 0.0
2017-Nov-06 21:19N 51°27' E 002°38'0 0.0
2017-Nov-06 21:01N 51°27' E 002°38'0 0.0
2017-Nov-06 20:12N 51°27' E 002°38'0 0.0
2017-Nov-06 02:28N 51°27' E 002°39'0 0.0
2017-Nov-06 02:00N 51°27' E 002°39'0 0.0
2017-Nov-06 01:22N 51°27' E 002°38'0 0.0
2017-Nov-05 21:39N 51°27' E 002°38'0 0.0
2017-Nov-05 21:13N 51°27' E 002°38'0 0.0
2017-Nov-05 20:43N 51°27' E 002°38'0 0.0
2017-Nov-05 20:28N 51°27' E 002°38'0 0.0
2017-Nov-05 19:12N 51°27' E 002°38'0 0.0
2017-Nov-05 18:46N 51°27' E 002°38'0 0.1
2017-Nov-05 18:24N 51°27' E 002°39'0 0.0
2017-Nov-05 18:01N 51°27' E 002°39'0 0.0
2017-Nov-05 17:24N 51°27' E 002°39'0 0.0
2017-Nov-05 17:00N 51°27' E 002°39'0 0.0
2017-Nov-05 16:28N 51°27' E 002°39'0 0.1
2017-Nov-05 15:58N 51°27' E 002°39'0 0.0
2017-Nov-05 15:18N 51°27' E 002°39'0 0.1
2017-Nov-05 15:01N 51°27' E 002°39'0 0.0
2017-Nov-05 14:31N 51°27' E 002°39'0 0.0
2017-Nov-05 13:55N 51°27' E 002°39'0 0.0
2017-Nov-05 13:25N 51°27' E 002°39'0 0.0
2017-Nov-05 10:42N 51°27' E 002°39'0 0.0
2017-Nov-05 07:13N 51°27' E 002°38'0 0.0
2017-Nov-05 06:42N 51°27' E 002°38'0 0.0
2017-Nov-05 04:57N 51°27' E 002°39'0 0.0
2017-Nov-05 00:49N 51°27' E 002°39'0 0.0
2017-Nov-05 00:30N 51°27' E 002°39'0 0.0
2017-Nov-05 00:00N 51°27' E 002°39'0 0.0
2017-Nov-04 23:31N 51°27' E 002°39'0 0.0
2017-Nov-04 21:55N 51°27' E 002°39'0 0.0
2017-Nov-04 17:11N 51°27' E 002°39'4 5.6
2017-Nov-04 16:24N 51°24' E 002°43'3 8.3
2017-Nov-04 16:00N 51°22' E 002°48'611.8
2017-Nov-04 15:30N 51°24' E 002°57'612.0
2017-Nov-04 15:00N 51°24' E 003°06'612.5
2017-Nov-04 14:31N 51°25' E 003°16'612.2
2017-Nov-04 14:00N 51°25' E 003°26'610.9
2017-Nov-04 13:30N 51°26' E 003°35'4 8.1
2017-Nov-04 13:00N 51°25' E 003°41'5 9.3
2017-Nov-04 12:30N 51°22' E 003°46'3 5.1
2017-Nov-04 12:01N 51°20' E 003°49'1 1.6
2017-Nov-04 11:31N 51°19' E 003°50'3 6.4
2017-Nov-04 11:00N 51°16' E 003°50'3 6.7
2017-Nov-04 10:31N 51°13' E 003°48'3 6.5
2017-Nov-04 10:01N 51°09' E 003°47'3 6.2
2017-Nov-04 09:31N 51°07' E 003°45'1 3.0
2017-Nov-04 09:00N 51°05' E 003°44'0 0.1
2017-Nov-04 08:27N 51°05' E 003°44'0 0.0
2017-Nov-04 07:57N 51°05' E 003°44'0 0.0
2017-Nov-04 07:27N 51°05' E 003°44'0 0.0
2017-Nov-04 07:00N 51°05' E 003°44'0 0.0
2017-Nov-04 06:24N 51°05' E 003°44'0 0.0
2017-Nov-04 06:00N 51°05' E 003°44'0 0.0
2017-Nov-04 05:30N 51°05' E 003°44'0 0.0
2017-Nov-04 04:57N 51°05' E 003°44'0 0.0
2017-Nov-04 04:30N 51°05' E 003°44'0 0.0
2017-Nov-04 03:54N 51°05' E 003°44'0 0.0
2017-Nov-04 03:27N 51°05' E 003°44'0 0.0
2017-Nov-04 02:54N 51°05' E 003°44'0 0.0
2017-Nov-04 02:30N 51°05' E 003°44'0 0.0
2017-Nov-04 01:57N 51°05' E 003°44'0 0.0
2017-Nov-04 01:30N 51°05' E 003°44'0 0.0
2017-Nov-04 00:57N 51°05' E 003°44'0 0.0
2017-Nov-04 00:30N 51°05' E 003°44'0 0.0
2017-Nov-04 00:00N 51°05' E 003°44'0 0.0
2017-Nov-03 23:27N 51°05' E 003°44'0 0.0
2017-Nov-03 22:57N 51°05' E 003°44'0 0.0
2017-Nov-03 22:30N 51°05' E 003°44'0 0.0
2017-Nov-03 22:00N 51°05' E 003°44'0 0.0
2017-Nov-03 21:30N 51°05' E 003°44'0 0.0
2017-Nov-03 21:00N 51°05' E 003°44'0 0.0
2017-Nov-03 20:27N 51°05' E 003°44'0 0.0
2017-Nov-03 20:00N 51°05' E 003°44'0 0.0
2017-Nov-03 19:30N 51°05' E 003°44'0 0.0
2017-Nov-03 19:00N 51°05' E 003°44'0 0.0
2017-Nov-03 18:30N 51°05' E 003°44'0 0.0
2017-Nov-03 18:00N 51°05' E 003°44'0 0.0
2017-Nov-03 17:27N 51°05' E 003°44'0 0.0
2017-Nov-03 17:00N 51°05' E 003°44'0 0.0
2017-Nov-03 16:30N 51°05' E 003°44'0 0.0
2017-Nov-03 16:00N 51°05' E 003°44'0 0.0
2017-Nov-03 15:30N 51°05' E 003°44'0 0.0
2017-Nov-03 15:00N 51°05' E 003°44'0 0.0
2017-Nov-03 14:30N 51°05' E 003°44'0 0.0
2017-Nov-03 14:00N 51°05' E 003°44'0 0.0
2017-Nov-03 13:27N 51°05' E 003°44'0 0.0
2017-Nov-03 13:00N 51°05' E 003°44'0 0.0
2017-Nov-03 12:30N 51°05' E 003°44'0 0.1
2017-Nov-03 12:00N 51°05' E 003°44'1 1.6
2017-Nov-03 11:30N 51°06' E 003°45'0 0.8
2017-Nov-03 10:59N 51°06' E 003°45'0 0.0
2017-Nov-03 10:29N 51°06' E 003°45'0 0.0
2017-Nov-03 09:59N 51°06' E 003°45'0 0.0
2017-Nov-03 09:29N 51°06' E 003°45'0 0.0
2017-Nov-03 08:56N 51°06' E 003°45'0 0.0
2017-Nov-03 08:26N 51°06' E 003°45'0 0.0
2017-Nov-03 07:59N 51°06' E 003°45'0 0.0
2017-Nov-03 07:29N 51°06' E 003°45'0 0.0
2017-Nov-03 06:59N 51°06' E 003°45'0 0.0
2017-Nov-03 06:29N 51°06' E 003°45'0 0.0
2017-Nov-03 05:59N 51°06' E 003°45'0 0.0
2017-Nov-03 05:29N 51°06' E 003°45'0 0.0
2017-Nov-03 04:59N 51°06' E 003°45'0 0.0
2017-Nov-03 04:29N 51°06' E 003°45'0 0.0
2017-Nov-03 03:59N 51°06' E 003°45'0 0.0
2017-Nov-03 03:29N 51°06' E 003°45'0 0.0
2017-Nov-03 02:59N 51°06' E 003°45'0 0.0
2017-Nov-03 02:29N 51°06' E 003°45'0 0.0
2017-Nov-03 01:59N 51°06' E 003°45'0 0.0
2017-Nov-03 01:29N 51°06' E 003°45'0 0.0
2017-Nov-03 00:59N 51°06' E 003°45'0 0.0
2017-Nov-03 00:29N 51°06' E 003°45'0 0.0
2017-Nov-02 23:59N 51°06' E 003°45'0 0.0
2017-Nov-02 23:29N 51°06' E 003°45'0 0.0
2017-Nov-02 22:59N 51°06' E 003°45'0 0.0
2017-Nov-02 22:29N 51°06' E 003°45'0 0.0
2017-Nov-02 21:59N 51°06' E 003°45'0 0.0
2017-Nov-02 21:29N 51°06' E 003°45'0 0.0
2017-Nov-02 20:56N 51°06' E 003°45'0 0.0
2017-Nov-02 20:29N 51°06' E 003°45'0 0.0
2017-Nov-02 19:59N 51°06' E 003°45'0 0.0
2017-Nov-02 19:29N 51°06' E 003°45'0 0.0
2017-Nov-02 18:56N 51°06' E 003°45'0 0.0
2017-Nov-02 18:29N 51°06' E 003°45'0 0.0
2017-Nov-02 17:59N 51°06' E 003°45'0 0.0
2017-Nov-02 17:29N 51°06' E 003°45'0 0.0
2017-Nov-02 16:59N 51°06' E 003°45'0 0.0
2017-Nov-02 16:29N 51°06' E 003°45'0 0.0
2017-Nov-02 15:59N 51°06' E 003°45'0 0.0
2017-Nov-02 15:26N 51°06' E 003°45'0 0.0
2017-Nov-02 14:59N 51°06' E 003°45'0 0.0
2017-Nov-02 14:29N 51°06' E 003°45'0 0.0
2017-Nov-02 13:59N 51°06' E 003°45'0 0.0
2017-Nov-02 13:29N 51°06' E 003°45'0 0.0
2017-Nov-02 12:56N 51°06' E 003°45'0 0.0
2017-Nov-02 12:29N 51°06' E 003°45'0 0.0
2017-Nov-02 11:59N 51°06' E 003°45'0 0.0
2017-Nov-02 11:26N 51°06' E 003°45'0 0.0
2017-Nov-02 10:59N 51°06' E 003°45'0 0.0
2017-Nov-02 10:29N 51°06' E 003°45'0 0.0
2017-Nov-02 09:59N 51°06' E 003°45'0 0.0
2017-Nov-02 09:29N 51°06' E 003°45'0 0.0
2017-Nov-02 08:59N 51°06' E 003°45'0 0.0
2017-Nov-02 08:29N 51°06' E 003°45'0 0.0
2017-Nov-02 07:59N 51°06' E 003°45'0 0.0
2017-Nov-02 07:26N 51°06' E 003°45'0 0.0
2017-Nov-02 06:59N 51°06' E 003°45'0 0.0
2017-Nov-02 06:29N 51°06' E 003°45'0 0.0
2017-Nov-02 05:59N 51°06' E 003°45'0 0.0
2017-Nov-02 05:29N 51°06' E 003°45'0 0.0
2017-Nov-02 04:59N 51°06' E 003°45'0 0.0
2017-Nov-02 04:29N 51°06' E 003°45'0 0.0
2017-Nov-02 03:59N 51°06' E 003°45'0 0.0
2017-Nov-02 03:29N 51°06' E 003°45'0 0.0
2017-Nov-02 02:59N 51°06' E 003°45'0 0.0
2017-Nov-02 02:23N 51°06' E 003°45'0 0.0
2017-Nov-02 01:59N 51°06' E 003°45'0 0.6
2017-Nov-02 01:31N 51°06' E 003°45'3 6.6
2017-Nov-02 01:00N 51°09' E 003°47'4 7.5
2017-Nov-02 00:30N 51°13' E 003°48'4 7.0
2017-Nov-02 00:00N 51°16' E 003°50'4 7.1
2017-Nov-01 23:30N 51°19' E 003°49'0 0.7
2017-Nov-01 23:00N 51°20' E 003°49'1 1.4
2017-Nov-01 22:30N 51°20' E 003°49'2 4.1
2017-Nov-01 22:00N 51°21' E 003°46'510.9
2017-Nov-01 21:30N 51°26' E 003°41'510.2
2017-Nov-01 21:00N 51°25' E 003°33'5 9.9
2017-Nov-01 20:30N 51°25' E 003°25'611.4
2017-Nov-01 20:00N 51°25' E 003°16'511.0
2017-Nov-01 19:30N 51°24' E 003°07'5 9.9
2017-Nov-01 19:00N 51°23' E 002°59'510.5
2017-Nov-01 18:30N 51°22' E 002°51'39 5.2
2017-Nov-01 11:00N 51°06' E 001°54'10912.2 220 / 151015.0 16.012.415.0
2017-Nov-01 02:00N 50°13' W 000°36'611.8
2017-Nov-01 01:30N 50°11' W 000°45'611.3
2017-Nov-01 01:00N 50°10' W 000°54'510.9
2017-Nov-01 00:30N 50°09' W 001°02'510.6
2017-Oct-31 23:59N 50°08' W 001°11'510.5
2017-Oct-31 23:30N 50°07' W 001°19'510.2
2017-Oct-31 22:59N 50°05' W 001°26'510.3
2017-Oct-31 22:30N 50°04' W 001°34'510.5
2017-Oct-31 22:00N 50°03' W 001°42'510.8
2017-Oct-31 21:30N 50°01' W 001°50'611.6
2017-Oct-31 21:00N 49°60' W 001°59'612.2
2017-Oct-31 20:30N 49°59' W 002°08'612.9
2017-Oct-31 20:00N 49°57' W 002°17'713.3
2017-Oct-31 19:30N 49°55' W 002°28'713.7
2017-Oct-31 19:00N 49°53' W 002°38'713.8
2017-Oct-31 18:30N 49°51' W 002°48'1213.9
2017-Oct-31 17:37N 49°47' W 003°06'214.1
2017-Oct-31 17:30N 49°47' W 003°08'714.1
2017-Oct-31 17:00N 49°44' W 003°19'714.0
2017-Oct-31 16:30N 49°42' W 003°29'713.9
2017-Oct-31 15:59N 49°40' W 003°39'714.0
2017-Oct-31 15:29N 49°38' W 003°50'714.1
2017-Oct-31 14:59N 49°36' W 004°00'914.2
2017-Oct-31 14:22N 49°33' W 004°13'614.0
2017-Oct-31 13:58N 49°31' W 004°21'614.1
2017-Oct-31 13:30N 49°29' W 004°31'714.0
2017-Oct-31 13:00N 49°27' W 004°41'713.9
2017-Oct-31 12:31N 49°25' W 004°51'713.8
2017-Oct-31 11:58N 49°22' W 005°02'713.8
2017-Oct-31 11:27N 49°20' W 005°12'613.5
2017-Oct-31 11:00N 49°18' W 005°21'713.4
2017-Oct-31 10:30N 49°16' W 005°31'713.3
2017-Oct-31 10:00N 49°14' W 005°41'713.0
2017-Oct-31 09:27N 49°13' W 005°51'612.7
2017-Oct-31 09:01N 49°12' W 005°60'612.4
2017-Oct-31 08:30N 49°11' W 006°09'612.3
2017-Oct-31 08:01N 49°10' W 006°19'611.8
2017-Oct-31 07:29N 49°09' W 006°28'711.8
2017-Oct-31 06:54N 49°08' W 006°39'611.8
2017-Oct-31 06:23N 49°07' W 006°48'611.6
2017-Oct-31 05:52N 49°06' W 006°57'411.8
2017-Oct-31 05:29N 49°06' W 007°04'712.2
2017-Oct-31 04:53N 49°04' W 007°14'612.6
2017-Oct-31 04:27N 49°04' W 007°23'712.8
2017-Oct-31 03:53N 49°03' W 007°34'512.9
2017-Oct-31 03:29N 49°02' W 007°41'712.8
2017-Oct-31 02:59N 49°01' W 007°51'613.1
2017-Oct-31 02:30N 48°60' W 008°01'1313.2
2017-Oct-31 01:31N 48°58' W 008°20'013.9
2017-Oct-31 01:29N 48°58' W 008°21'17112.6
2017-Oct-30 12:00N 48°30' W 012°36'   150 / 131033.0 17.013.516.0
Track history (hours):
 
Tides and Currents Weather Stations Pressure Air Temp Water Temp Dewpoint Dewpoint Depression Visibility Wind Speed Wind Dir Waves Ship Positions

Port Kenny

Last reported at 2017-Nov-09 11:58 UTC. Time now 2017-Nov-22 11:11 UTC.
Position N 55°42' E 017°10'.
Warning: this ship's position is 12 days out of date.

Length 170 m; draft 5.7 m.

Type: Cargo ship. MMSI: 477742592.

Date/timePositionNaut miles runAvg speedWind from/ knotsBaromVisibWave heightAir tempDewpointWater temp
2017-Nov-09 11:58N 55°42' E 017°10'714.2
2017-Nov-09 11:29N 55°41' E 016°58'1014.1
2017-Nov-09 10:48N 55°39' E 016°41'414.2
2017-Nov-09 10:29N 55°39' E 016°33'714.3
2017-Nov-09 10:00N 55°38' E 016°21'714.3
2017-Nov-09 09:30N 55°37' E 016°08'714.2
2017-Nov-09 09:00N 55°35' E 015°56'714.0
2017-Nov-09 08:30N 55°34' E 015°44'713.9
2017-Nov-09 08:00N 55°33' E 015°32'714.1
2017-Nov-09 07:30N 55°32' E 015°19'713.9
2017-Nov-09 07:01N 55°30' E 015°08'713.9
2017-Nov-09 06:30N 55°28' E 014°56'713.9
2017-Nov-09 06:00N 55°25' E 014°45'714.0
2017-Nov-09 05:30N 55°21' E 014°35'714.1
2017-Nov-09 05:00N 55°16' E 014°27'713.6
2017-Nov-09 04:31N 55°11' E 014°18'713.6
2017-Nov-09 03:59N 55°09' E 014°06'1413.7
2017-Nov-09 02:59N 55°10' E 013°42'1014.0
2017-Nov-09 02:15N 55°11' E 013°24'314.0
2017-Nov-09 02:00N 55°11' E 013°18'713.8
2017-Nov-09 01:30N 55°12' E 013°06'713.9
2017-Nov-09 01:00N 55°14' E 012°55'713.9
2017-Nov-09 00:30N 55°16' E 012°43'510.5
2017-Nov-09 00:00N 55°21' E 012°38'613.0
2017-Nov-08 23:31N 55°27' E 012°40'510.6
2017-Nov-08 23:01N 55°32' E 012°45'510.3
2017-Nov-08 22:30N 55°35' E 012°51'510.1
2017-Nov-08 22:00N 55°39' E 012°57'510.5
2017-Nov-08 21:30N 55°44' E 012°52'5 9.8
2017-Nov-08 21:01N 55°48' E 012°47'510.0
2017-Nov-08 20:31N 55°53' E 012°44'510.4
2017-Nov-08 20:01N 55°58' E 012°42'510.1
2017-Nov-08 19:30N 56°03' E 012°39'4 8.4
2017-Nov-08 19:00N 56°06' E 012°34'4 8.1
2017-Nov-08 18:30N 56°08' E 012°28'4 8.3
2017-Nov-08 18:00N 56°11' E 012°22'4112.5
2017-Nov-08 14:44N 56°47' E 011°50'413.3
2017-Nov-08 14:27N 56°51' E 011°48'713.5
2017-Nov-08 13:54N 56°58' E 011°44'613.3
2017-Nov-08 13:25N 57°04' E 011°39'512.9
2017-Nov-08 13:01N 57°09' E 011°35'713.2
2017-Nov-08 12:30N 57°15' E 011°30'713.3
2017-Nov-08 12:01N 57°21' E 011°27'713.2
2017-Nov-08 11:30N 57°27' E 011°23'613.0
2017-Nov-08 11:01N 57°32' E 011°14'713.7
2017-Nov-08 10:30N 57°37' E 011°05'713.7
2017-Nov-08 09:59N 57°42' E 010°56'613.8
2017-Nov-08 09:31N 57°46' E 010°47'712.9
2017-Nov-08 09:00N 57°47' E 010°35'714.2
2017-Nov-08 08:29N 57°46' E 010°21'32913.7
2017-Nov-07 08:33N 53°20' E 004°39'114.8
2017-Nov-07 08:28N 53°19' E 004°38'815.0
2017-Nov-07 07:57N 53°12' E 004°32'715.1
2017-Nov-07 07:30N 53°06' E 004°27'815.2
2017-Nov-07 07:00N 52°60' E 004°20'815.4
2017-Nov-07 06:30N 52°53' E 004°16'815.3
2017-Nov-07 05:57N 52°45' E 004°08'715.3
2017-Nov-07 05:30N 52°40' E 003°60'815.4
2017-Nov-07 05:00N 52°35' E 003°51'2915.7
2017-Nov-07 03:10N 52°14' E 003°19'315.9
2017-Nov-07 02:59N 52°12' E 003°15'815.9
2017-Nov-07 02:30N 52°07' E 003°06'815.7
2017-Nov-07 02:00N 52°01' E 002°57'2014.0
2017-Nov-07 00:33N 51°44' E 002°40'1412.0
2017-Nov-06 23:23N 51°30' E 002°40'3 8.3
2017-Nov-06 23:00N 51°27' E 002°38'0 0.2
2017-Nov-06 22:31N 51°27' E 002°38'0 0.0
2017-Nov-06 21:55N 51°27' E 002°38'0 0.0
2017-Nov-06 21:19N 51°27' E 002°38'0 0.0
2017-Nov-06 21:01N 51°27' E 002°38'0 0.0
2017-Nov-06 20:12N 51°27' E 002°38'0 0.0
2017-Nov-06 02:28N 51°27' E 002°39'0 0.0
2017-Nov-06 02:00N 51°27' E 002°39'0 0.0
2017-Nov-06 01:22N 51°27' E 002°38'0 0.0
2017-Nov-05 21:39N 51°27' E 002°38'0 0.0
2017-Nov-05 21:13N 51°27' E 002°38'0 0.0
2017-Nov-05 20:43N 51°27' E 002°38'0 0.0
2017-Nov-05 20:28N 51°27' E 002°38'0 0.0
2017-Nov-05 19:12N 51°27' E 002°38'0 0.0
2017-Nov-05 18:46N 51°27' E 002°38'0 0.1
2017-Nov-05 18:24N 51°27' E 002°39'0 0.0
2017-Nov-05 18:01N 51°27' E 002°39'0 0.0
2017-Nov-05 17:24N 51°27' E 002°39'0 0.0
2017-Nov-05 17:00N 51°27' E 002°39'0 0.0
2017-Nov-05 16:28N 51°27' E 002°39'0 0.1
2017-Nov-05 15:58N 51°27' E 002°39'0 0.0
2017-Nov-05 15:18N 51°27' E 002°39'0 0.1
2017-Nov-05 15:01N 51°27' E 002°39'0 0.0
2017-Nov-05 14:31N 51°27' E 002°39'0 0.0
2017-Nov-05 13:55N 51°27' E 002°39'0 0.0
2017-Nov-05 13:25N 51°27' E 002°39'0 0.0
2017-Nov-05 10:42N 51°27' E 002°39'0 0.0
2017-Nov-05 07:13N 51°27' E 002°38'0 0.0
2017-Nov-05 06:42N 51°27' E 002°38'0 0.0
2017-Nov-05 04:57N 51°27' E 002°39'0 0.0
2017-Nov-05 00:49N 51°27' E 002°39'0 0.0
2017-Nov-05 00:30N 51°27' E 002°39'0 0.0
2017-Nov-05 00:00N 51°27' E 002°39'0 0.0
2017-Nov-04 23:31N 51°27' E 002°39'0 0.0
2017-Nov-04 21:55N 51°27' E 002°39'0 0.0
2017-Nov-04 17:11N 51°27' E 002°39'4 5.6
2017-Nov-04 16:24N 51°24' E 002°43'3 8.3
2017-Nov-04 16:00N 51°22' E 002°48'611.8
2017-Nov-04 15:30N 51°24' E 002°57'612.0
2017-Nov-04 15:00N 51°24' E 003°06'612.5
2017-Nov-04 14:31N 51°25' E 003°16'612.2
2017-Nov-04 14:00N 51°25' E 003°26'610.9
2017-Nov-04 13:30N 51°26' E 003°35'4 8.1
2017-Nov-04 13:00N 51°25' E 003°41'5 9.3
2017-Nov-04 12:30N 51°22' E 003°46'3 5.1
2017-Nov-04 12:01N 51°20' E 003°49'1 1.6
2017-Nov-04 11:31N 51°19' E 003°50'3 6.4
2017-Nov-04 11:00N 51°16' E 003°50'3 6.7
2017-Nov-04 10:31N 51°13' E 003°48'3 6.5
2017-Nov-04 10:01N 51°09' E 003°47'3 6.2
2017-Nov-04 09:31N 51°07' E 003°45'1 3.0
2017-Nov-04 09:00N 51°05' E 003°44'0 0.1
2017-Nov-04 08:27N 51°05' E 003°44'0 0.0
2017-Nov-04 07:57N 51°05' E 003°44'0 0.0
2017-Nov-04 07:27N 51°05' E 003°44'0 0.0
2017-Nov-04 07:00N 51°05' E 003°44'0 0.0
2017-Nov-04 06:24N 51°05' E 003°44'0 0.0
2017-Nov-04 06:00N 51°05' E 003°44'0 0.0
2017-Nov-04 05:30N 51°05' E 003°44'0 0.0
2017-Nov-04 04:57N 51°05' E 003°44'0 0.0
2017-Nov-04 04:30N 51°05' E 003°44'0 0.0
2017-Nov-04 03:54N 51°05' E 003°44'0 0.0
2017-Nov-04 03:27N 51°05' E 003°44'0 0.0
2017-Nov-04 02:54N 51°05' E 003°44'0 0.0
2017-Nov-04 02:30N 51°05' E 003°44'0 0.0
2017-Nov-04 01:57N 51°05' E 003°44'0 0.0
2017-Nov-04 01:30N 51°05' E 003°44'0 0.0
2017-Nov-04 00:57N 51°05' E 003°44'0 0.0
2017-Nov-04 00:30N 51°05' E 003°44'0 0.0
2017-Nov-04 00:00N 51°05' E 003°44'0 0.0
2017-Nov-03 23:27N 51°05' E 003°44'0 0.0
2017-Nov-03 22:57N 51°05' E 003°44'0 0.0
2017-Nov-03 22:30N 51°05' E 003°44'0 0.0
2017-Nov-03 22:00N 51°05' E 003°44'0 0.0
2017-Nov-03 21:30N 51°05' E 003°44'0 0.0
2017-Nov-03 21:00N 51°05' E 003°44'0 0.0
2017-Nov-03 20:27N 51°05' E 003°44'0 0.0
2017-Nov-03 20:00N 51°05' E 003°44'0 0.0
2017-Nov-03 19:30N 51°05' E 003°44'0 0.0
2017-Nov-03 19:00N 51°05' E 003°44'0 0.0
2017-Nov-03 18:30N 51°05' E 003°44'0 0.0
2017-Nov-03 18:00N 51°05' E 003°44'0 0.0
2017-Nov-03 17:27N 51°05' E 003°44'0 0.0
2017-Nov-03 17:00N 51°05' E 003°44'0 0.0
2017-Nov-03 16:30N 51°05' E 003°44'0 0.0
2017-Nov-03 16:00N 51°05' E 003°44'0 0.0
2017-Nov-03 15:30N 51°05' E 003°44'0 0.0
2017-Nov-03 15:00N 51°05' E 003°44'0 0.0
2017-Nov-03 14:30N 51°05' E 003°44'0 0.0
2017-Nov-03 14:00N 51°05' E 003°44'0 0.0
2017-Nov-03 13:27N 51°05' E 003°44'0 0.0
2017-Nov-03 13:00N 51°05' E 003°44'0 0.0
2017-Nov-03 12:30N 51°05' E 003°44'0 0.1
2017-Nov-03 12:00N 51°05' E 003°44'1 1.6
2017-Nov-03 11:30N 51°06' E 003°45'0 0.8
2017-Nov-03 10:59N 51°06' E 003°45'0 0.0
2017-Nov-03 10:29N 51°06' E 003°45'0 0.0
2017-Nov-03 09:59N 51°06' E 003°45'0 0.0
2017-Nov-03 09:29N 51°06' E 003°45'0 0.0
2017-Nov-03 08:56N 51°06' E 003°45'0 0.0
2017-Nov-03 08:26N 51°06' E 003°45'0 0.0
2017-Nov-03 07:59N 51°06' E 003°45'0 0.0
2017-Nov-03 07:29N 51°06' E 003°45'0 0.0
2017-Nov-03 06:59N 51°06' E 003°45'0 0.0
2017-Nov-03 06:29N 51°06' E 003°45'0 0.0
2017-Nov-03 05:59N 51°06' E 003°45'0 0.0
2017-Nov-03 05:29N 51°06' E 003°45'0 0.0
2017-Nov-03 04:59N 51°06' E 003°45'0 0.0
2017-Nov-03 04:29N 51°06' E 003°45'0 0.0
2017-Nov-03 03:59N 51°06' E 003°45'0 0.0
2017-Nov-03 03:29N 51°06' E 003°45'0 0.0
2017-Nov-03 02:59N 51°06' E 003°45'0 0.0
2017-Nov-03 02:29N 51°06' E 003°45'0 0.0
2017-Nov-03 01:59N 51°06' E 003°45'0 0.0
2017-Nov-03 01:29N 51°06' E 003°45'0 0.0
2017-Nov-03 00:59N 51°06' E 003°45'0 0.0
2017-Nov-03 00:29N 51°06' E 003°45'0 0.0
2017-Nov-02 23:59N 51°06' E 003°45'0 0.0
2017-Nov-02 23:29N 51°06' E 003°45'0 0.0
2017-Nov-02 22:59N 51°06' E 003°45'0 0.0
2017-Nov-02 22:29N 51°06' E 003°45'0 0.0
2017-Nov-02 21:59N 51°06' E 003°45'0 0.0
2017-Nov-02 21:29N 51°06' E 003°45'0 0.0
2017-Nov-02 20:56N 51°06' E 003°45'0 0.0
2017-Nov-02 20:29N 51°06' E 003°45'0 0.0
2017-Nov-02 19:59N 51°06' E 003°45'0 0.0
2017-Nov-02 19:29N 51°06' E 003°45'0 0.0
2017-Nov-02 18:56N 51°06' E 003°45'0 0.0
2017-Nov-02 18:29N 51°06' E 003°45'0 0.0
2017-Nov-02 17:59N 51°06' E 003°45'0 0.0
2017-Nov-02 17:29N 51°06' E 003°45'0 0.0
2017-Nov-02 16:59N 51°06' E 003°45'0 0.0
2017-Nov-02 16:29N 51°06' E 003°45'0 0.0
2017-Nov-02 15:59N 51°06' E 003°45'0 0.0
2017-Nov-02 15:26N 51°06' E 003°45'0 0.0
2017-Nov-02 14:59N 51°06' E 003°45'0 0.0
2017-Nov-02 14:29N 51°06' E 003°45'0 0.0
2017-Nov-02 13:59N 51°06' E 003°45'0 0.0
2017-Nov-02 13:29N 51°06' E 003°45'0 0.0
2017-Nov-02 12:56N 51°06' E 003°45'0 0.0
2017-Nov-02 12:29N 51°06' E 003°45'0 0.0
2017-Nov-02 11:59N 51°06' E 003°45'0 0.0
2017-Nov-02 11:26N 51°06' E 003°45'0 0.0
2017-Nov-02 10:59N 51°06' E 003°45'0 0.0
2017-Nov-02 10:29N 51°06' E 003°45'0 0.0
2017-Nov-02 09:59N 51°06' E 003°45'0 0.0
2017-Nov-02 09:29N 51°06' E 003°45'0 0.0
2017-Nov-02 08:59N 51°06' E 003°45'0 0.0
2017-Nov-02 08:29N 51°06' E 003°45'0 0.0
2017-Nov-02 07:59N 51°06' E 003°45'0 0.0
2017-Nov-02 07:26N 51°06' E 003°45'0 0.0
2017-Nov-02 06:59N 51°06' E 003°45'0 0.0
2017-Nov-02 06:29N 51°06' E 003°45'0 0.0
2017-Nov-02 05:59N 51°06' E 003°45'0 0.0
2017-Nov-02 05:29N 51°06' E 003°45'0 0.0
2017-Nov-02 04:59N 51°06' E 003°45'0 0.0
2017-Nov-02 04:29N 51°06' E 003°45'0 0.0
2017-Nov-02 03:59N 51°06' E 003°45'0 0.0
2017-Nov-02 03:29N 51°06' E 003°45'0 0.0
2017-Nov-02 02:59N 51°06' E 003°45'0 0.0
2017-Nov-02 02:23N 51°06' E 003°45'0 0.0
2017-Nov-02 01:59N 51°06' E 003°45'0 0.6
2017-Nov-02 01:31N 51°06' E 003°45'3 6.6
2017-Nov-02 01:00N 51°09' E 003°47'4 7.5
2017-Nov-02 00:30N 51°13' E 003°48'4 7.0
2017-Nov-02 00:00N 51°16' E 003°50'4 7.1
2017-Nov-01 23:30N 51°19' E 003°49'0 0.7
2017-Nov-01 23:00N 51°20' E 003°49'1 1.4
2017-Nov-01 22:30N 51°20' E 003°49'2 4.1
2017-Nov-01 22:00N 51°21' E 003°46'510.9
2017-Nov-01 21:30N 51°26' E 003°41'510.2
2017-Nov-01 21:00N 51°25' E 003°33'5 9.9
2017-Nov-01 20:30N 51°25' E 003°25'611.4
2017-Nov-01 20:00N 51°25' E 003°16'511.0
2017-Nov-01 19:30N 51°24' E 003°07'5 9.9
2017-Nov-01 19:00N 51°23' E 002°59'510.5
2017-Nov-01 18:30N 51°22' E 002°51'39 5.2
2017-Nov-01 11:00N 51°06' E 001°54'10912.2 220 / 151015.0 16.012.415.0
2017-Nov-01 02:00N 50°13' W 000°36'611.8
2017-Nov-01 01:30N 50°11' W 000°45'611.3
2017-Nov-01 01:00N 50°10' W 000°54'510.9
2017-Nov-01 00:30N 50°09' W 001°02'510.6
2017-Oct-31 23:59N 50°08' W 001°11'510.5
2017-Oct-31 23:30N 50°07' W 001°19'510.2
2017-Oct-31 22:59N 50°05' W 001°26'510.3
2017-Oct-31 22:30N 50°04' W 001°34'510.5
2017-Oct-31 22:00N 50°03' W 001°42'510.8
2017-Oct-31 21:30N 50°01' W 001°50'611.6
2017-Oct-31 21:00N 49°60' W 001°59'612.2
2017-Oct-31 20:30N 49°59' W 002°08'612.9
2017-Oct-31 20:00N 49°57' W 002°17'713.3
2017-Oct-31 19:30N 49°55' W 002°28'713.7
2017-Oct-31 19:00N 49°53' W 002°38'713.8
2017-Oct-31 18:30N 49°51' W 002°48'1213.9
2017-Oct-31 17:37N 49°47' W 003°06'214.1
2017-Oct-31 17:30N 49°47' W 003°08'714.1
2017-Oct-31 17:00N 49°44' W 003°19'714.0
2017-Oct-31 16:30N 49°42' W 003°29'713.9
2017-Oct-31 15:59N 49°40' W 003°39'714.0
2017-Oct-31 15:29N 49°38' W 003°50'714.1
2017-Oct-31 14:59N 49°36' W 004°00'914.2
2017-Oct-31 14:22N 49°33' W 004°13'614.0
2017-Oct-31 13:58N 49°31' W 004°21'614.1
2017-Oct-31 13:30N 49°29' W 004°31'714.0
2017-Oct-31 13:00N 49°27' W 004°41'713.9
2017-Oct-31 12:31N 49°25' W 004°51'713.8
2017-Oct-31 11:58N 49°22' W 005°02'713.8
2017-Oct-31 11:27N 49°20' W 005°12'613.5
2017-Oct-31 11:00N 49°18' W 005°21'713.4
2017-Oct-31 10:30N 49°16' W 005°31'713.3
2017-Oct-31 10:00N 49°14' W 005°41'713.0
2017-Oct-31 09:27N 49°13' W 005°51'612.7
2017-Oct-31 09:01N 49°12' W 005°60'612.4
2017-Oct-31 08:30N 49°11' W 006°09'612.3
2017-Oct-31 08:01N 49°10' W 006°19'611.8
2017-Oct-31 07:29N 49°09' W 006°28'711.8
2017-Oct-31 06:54N 49°08' W 006°39'611.8
2017-Oct-31 06:23N 49°07' W 006°48'611.6
2017-Oct-31 05:52N 49°06' W 006°57'411.8
2017-Oct-31 05:29N 49°06' W 007°04'712.2
2017-Oct-31 04:53N 49°04' W 007°14'612.6
2017-Oct-31 04:27N 49°04' W 007°23'712.8
2017-Oct-31 03:53N 49°03' W 007°34'512.9
2017-Oct-31 03:29N 49°02' W 007°41'712.8
2017-Oct-31 02:59N 49°01' W 007°51'613.1
2017-Oct-31 02:30N 48°60' W 008°01'1313.2
2017-Oct-31 01:31N 48°58' W 008°20'013.9
2017-Oct-31 01:29N 48°58' W 008°21'17112.6
2017-Oct-30 12:00N 48°30' W 012°36'   150 / 131033.0 17.013.516.0

Dump ship's entire track history